オークランド の空港の天気 - METARとTAF

オークランド国際空港 ( NZAA / AKL ) - ニュージーランド オークランド|オークランド
飛行場実況気象(Metar)
観測時間06/24 06:30 NZST (06/23 18:30 UTC)
風向・風速南南西 6m/s
視程10km以上
天気現象
全天の8割程度の雲 雲底高度 400m
全天の8割程度の雲 雲底高度 550m
気温14℃
湿度94%
気圧996hPa
METARNZAA 231830Z AUTO 21011KT 9999 BKN013/// BKN018/// 14/13 Q0996 BECMG FM1900 SCT015 BKN030 TEMPO 5000 RA
過去の天気等 Google飛行場航空写真 Wunderground天気予報

過去48時間のMETAR

飛行場予報(TAF)
発表時間: 6/24 05:25 NZST (6/23 17:25 UTC)
予報対象時間: 24日6時 NZST ~ 25日6時 NZST
風向・風速西南西 8m/s
視程10km以上
天気現象弱いしゅう雨
全天の4割程度の雲 雲底高度 210m
全天の8割程度の雲 雲底高度 460m
24日6時 NZST ~ 24日8時 NZST に一時的に
視程5,000m
天気現象
全天の8割程度の雲 雲底高度 180m
24日7時 NZST ~ 24日9時 NZST に徐々に
風向・風速西南西 9m/s 瞬間風速 15m/s
全天の4割程度の雲 雲底高度 460m
全天の8割程度の雲 雲底高度 910m
24日8時 NZST ~ 24日16時 NZST に一時的に
視程7,000m
天気現象しゅう雨
全天の8割程度の雲 雲底高度 430m
24日20時 NZST ~ 24日22時 NZST に徐々に
風向・風速西 8m/s
25日2時 NZST ~ 25日4時 NZST に徐々に
風向・風速西北西 3m/s
TAF COR NZAA 231725Z 2318/2418 24015KT 9999 -SHRA SCT007 BKN015
TEMPO 2318/2320 5000 RA BKN006
BECMG 2319/2321 24018G30KT SCT015 BKN030
TEMPO 2320/2404 7000 SHRA BKN014
BECMG 2408/2410 26015KT
BECMG 2414/2416 30005KT